createdAt,value
2019-03-02T18:08:08.809Z,9.72
2019-03-02T18:09:05.989Z,9.67
2019-03-02T18:10:06.004Z,9.70
2019-03-02T18:11:05.980Z,9.69
2019-03-02T18:12:06.015Z,9.70
2019-03-02T18:13:07.078Z,9.67
2019-03-02T18:14:05.996Z,9.76
2019-03-02T18:15:06.145Z,9.80
2019-03-02T18:16:06.719Z,9.77
2019-03-02T18:17:06.060Z,9.85
2019-03-02T18:18:06.054Z,9.76
2019-03-02T18:19:07.208Z,9.84
2019-03-02T18:20:06.136Z,9.82
2019-03-02T18:21:06.023Z,9.87
2019-03-02T18:22:06.413Z,9.88
2019-03-02T18:23:06.066Z,9.87
2019-03-02T18:24:06.055Z,9.92
2019-03-02T18:25:07.817Z,9.92
2019-03-02T18:26:06.070Z,9.94
2019-03-02T18:27:06.089Z,9.94
2019-03-02T18:28:06.154Z,9.92
2019-03-02T18:29:06.063Z,9.92
2019-03-02T18:30:06.390Z,9.92
2019-03-02T18:31:06.108Z,10.03
2019-03-02T18:32:06.072Z,10.07
2019-03-02T18:33:07.626Z,10.05
2019-03-02T18:34:06.086Z,10.12
2019-03-02T18:35:06.127Z,10.13
2019-03-02T18:36:09.860Z,10.09
2019-03-02T18:37:06.228Z,10.10
2019-03-02T18:38:08.884Z,10.12
2019-03-02T18:39:06.189Z,10.12
2019-03-02T18:40:06.127Z,10.17
2019-03-02T18:41:06.197Z,10.23
2019-03-02T18:42:06.199Z,10.25
2019-03-02T18:43:08.149Z,10.25
2019-03-02T18:44:06.138Z,10.24
2019-03-02T18:45:06.158Z,10.25
2019-03-02T18:46:06.144Z,10.18
2019-03-02T18:47:06.185Z,10.18
2019-03-02T18:48:06.193Z,10.20
2019-03-02T18:49:11.511Z,10.09
2019-03-02T18:50:06.353Z,10.12
2019-03-02T18:51:08.157Z,10.13
2019-03-02T18:52:06.189Z,10.06
2019-03-02T18:53:06.283Z,10.05
2019-03-02T18:54:07.681Z,10.09
2019-03-02T18:55:06.847Z,10.05
2019-03-02T18:56:06.237Z,10.03
2019-03-02T18:57:09.650Z,10.03
2019-03-02T18:58:06.217Z,10.07
2019-03-02T18:59:07.800Z,9.91
2019-03-02T19:00:06.214Z,9.95
2019-03-02T19:01:06.239Z,9.85
2019-03-02T19:02:11.497Z,10.00
2019-03-02T19:03:06.253Z,9.91
2019-03-02T19:04:06.327Z,9.87
2019-03-02T19:05:06.255Z,9.87
2019-03-02T19:06:06.243Z,9.84
2019-03-02T19:07:06.224Z,9.87
2019-03-02T19:08:06.260Z,9.80
2019-03-02T19:09:06.280Z,9.77
2019-03-02T19:10:07.798Z,9.76
2019-03-02T19:11:06.677Z,9.77
2019-03-02T19:12:06.263Z,9.69
2019-03-02T19:13:08.335Z,9.67
2019-03-02T19:14:06.443Z,9.66
2019-03-02T19:15:06.293Z,9.76
2019-03-02T19:16:06.271Z,9.59
2019-03-02T19:17:06.289Z,9.66
2019-03-02T19:18:06.283Z,9.55
2019-03-02T19:19:06.287Z,9.55
2019-03-02T19:20:06.356Z,9.62
2019-03-02T19:21:06.288Z,9.58
2019-03-02T19:22:06.297Z,9.51
2019-03-02T19:23:06.296Z,9.58
2019-03-02T19:24:06.319Z,9.49
2019-03-02T19:25:06.313Z,9.48
2019-03-02T19:26:06.970Z,9.52
2019-03-02T19:27:06.353Z,9.52
2019-03-02T19:28:06.342Z,9.52
2019-03-02T19:29:06.361Z,9.52
2019-03-02T19:30:06.341Z,9.54
2019-03-02T19:31:06.348Z,9.39
2019-03-02T19:32:06.404Z,9.48
2019-03-02T19:33:06.557Z,9.52
2019-03-02T19:34:06.344Z,9.48
2019-03-02T19:35:07.189Z,9.33
2019-03-02T19:36:06.531Z,9.42
2019-03-02T19:37:06.476Z,9.42
2019-03-02T19:38:06.453Z,9.44
2019-03-02T19:39:06.373Z,9.49
2019-03-02T19:40:06.402Z,9.45
2019-03-02T19:41:06.381Z,9.45
2019-03-02T19:42:06.675Z,9.49
2019-03-02T19:43:06.411Z,9.34
2019-03-02T19:44:06.402Z,9.36
2019-03-02T19:45:06.395Z,9.37
2019-03-02T19:46:06.484Z,9.31
2019-03-02T19:47:06.452Z,9.36
2019-03-02T19:48:06.430Z,9.30
2019-03-02T19:49:06.420Z,9.29
2019-03-02T19:50:06.426Z,9.31
2019-03-02T19:51:06.510Z,9.31
2019-03-02T19:52:06.420Z,9.29
2019-03-02T19:53:06.431Z,9.27
2019-03-02T19:54:06.433Z,9.29
2019-03-02T19:55:06.564Z,9.24
2019-03-02T19:56:08.248Z,9.21
2019-03-02T19:57:06.487Z,9.16
2019-03-02T19:58:06.532Z,9.27
2019-03-02T19:59:06.614Z,9.22
2019-03-02T20:00:06.452Z,9.24
2019-03-02T20:01:06.524Z,9.19
2019-03-02T20:02:06.480Z,9.16
2019-03-02T20:03:06.509Z,9.13
2019-03-02T20:04:06.532Z,9.18
2019-03-02T20:05:06.484Z,9.18
2019-03-02T20:06:06.487Z,9.22
2019-03-02T20:07:06.527Z,9.18
2019-03-02T20:08:06.567Z,9.21
2019-03-02T20:09:07.448Z,9.16
2019-03-02T20:10:06.527Z,9.13
2019-03-02T20:11:06.509Z,9.08
2019-03-02T20:12:07.122Z,9.21
2019-03-02T20:13:06.705Z,9.19
2019-03-02T20:14:06.518Z,9.12
2019-03-02T20:15:06.602Z,9.03
2019-03-02T20:16:06.526Z,9.13
2019-03-02T20:17:06.699Z,9.13
2019-03-02T20:18:06.565Z,9.03
2019-03-02T20:19:06.550Z,9.12
2019-03-02T20:20:06.549Z,9.09
2019-03-02T20:21:06.665Z,9.16
2019-03-02T20:22:06.573Z,9.12
2019-03-02T20:23:06.674Z,9.11
2019-03-02T20:24:06.616Z,9.12
2019-03-02T20:25:06.552Z,9.12
2019-03-02T20:26:07.587Z,9.02
2019-03-02T20:27:06.575Z,9.13
2019-03-02T20:28:06.592Z,9.05
2019-03-02T20:29:06.610Z,9.09
2019-03-02T20:30:06.587Z,9.15
2019-03-02T20:31:06.648Z,9.08
2019-03-02T20:32:06.610Z,9.00
2019-03-02T20:33:06.606Z,9.12
2019-03-02T20:34:06.744Z,9.00
2019-03-02T20:35:06.619Z,9.08
2019-03-02T20:36:06.664Z,9.16
2019-03-02T20:37:06.635Z,8.99
2019-03-02T20:38:06.630Z,9.11
2019-03-02T20:39:06.618Z,9.13
2019-03-02T20:40:06.640Z,9.13
2019-03-02T20:41:06.643Z,9.09
2019-03-02T20:42:06.643Z,8.99
2019-03-02T20:43:06.635Z,9.11
2019-03-02T20:44:06.655Z,9.12
2019-03-02T20:45:06.678Z,9.13
2019-03-02T20:46:06.678Z,9.13
2019-03-02T20:47:06.686Z,9.05
2019-03-02T20:48:06.690Z,9.11
2019-03-02T20:49:06.741Z,9.13
2019-03-02T20:50:06.923Z,9.11
2019-03-02T20:51:06.689Z,9.09
2019-03-02T20:52:06.673Z,9.11
2019-03-02T20:53:06.812Z,9.11
2019-03-02T20:54:06.851Z,9.09
2019-03-02T20:55:06.810Z,9.09
2019-03-02T20:56:06.692Z,8.99
2019-03-02T20:57:06.717Z,8.99
2019-03-02T20:58:06.707Z,9.12
2019-03-02T20:59:06.810Z,8.99
2019-03-02T21:00:06.720Z,9.11
2019-03-02T21:01:06.809Z,9.00
2019-03-02T21:02:06.755Z,9.00
2019-03-02T21:03:06.748Z,9.02
2019-03-02T21:04:06.758Z,9.02
2019-03-02T21:05:06.754Z,9.05
2019-03-02T21:06:06.828Z,8.90
2019-03-02T21:07:06.784Z,9.05
2019-03-02T21:08:06.764Z,8.93
2019-03-02T21:09:06.756Z,8.89
2019-03-02T21:10:06.776Z,8.92
2019-03-02T21:11:06.764Z,8.92
2019-03-02T21:12:06.752Z,8.92
2019-03-02T21:13:07.028Z,8.86
2019-03-02T21:14:06.795Z,8.93
2019-03-02T21:15:06.781Z,8.92
2019-03-02T21:16:06.769Z,8.96
2019-03-02T21:17:06.777Z,8.87
2019-03-02T21:18:06.770Z,8.89
2019-03-02T21:19:07.156Z,8.92
2019-03-02T21:20:06.968Z,8.90
2019-03-02T21:21:06.810Z,8.86
2019-03-02T21:22:06.824Z,8.92
2019-03-02T21:23:06.851Z,8.89
2019-03-02T21:24:07.054Z,8.97
2019-03-02T21:25:06.839Z,8.90
2019-03-02T21:26:07.084Z,8.96
2019-03-02T21:27:07.082Z,8.97
2019-03-02T21:28:07.188Z,8.96
2019-03-02T21:29:06.825Z,8.99
2019-03-02T21:30:06.834Z,8.92
2019-03-02T21:31:06.875Z,9.03
2019-03-02T21:32:06.853Z,9.02
2019-03-02T21:33:06.866Z,8.97
2019-03-02T21:34:07.216Z,9.00
2019-03-02T21:35:06.854Z,9.03
2019-03-02T21:36:06.845Z,9.09
2019-03-02T21:37:06.874Z,9.13
2019-03-02T21:38:06.871Z,9.18
2019-03-02T21:39:06.891Z,9.11
2019-03-02T21:40:06.903Z,9.18
2019-03-02T21:41:07.106Z,9.15
2019-03-02T21:42:06.912Z,9.18
2019-03-02T21:43:06.940Z,9.21
2019-03-02T21:44:06.900Z,9.21
2019-03-02T21:45:06.933Z,9.29
2019-03-02T21:46:06.917Z,9.29
2019-03-02T21:47:06.934Z,9.36
2019-03-02T21:48:07.035Z,9.33
2019-03-02T21:49:06.975Z,9.33
2019-03-02T21:50:06.931Z,9.47
2019-03-02T21:51:06.949Z,9.39
2019-03-02T21:52:06.950Z,9.45
2019-03-02T21:53:07.052Z,9.34
2019-03-02T21:54:07.018Z,9.39
2019-03-02T21:55:06.996Z,9.42
2019-03-02T21:56:06.946Z,9.55
2019-03-02T21:57:06.995Z,9.47
2019-03-02T21:58:07.006Z,9.49
2019-03-02T21:59:06.958Z,9.56
2019-03-02T22:00:07.011Z,9.56
2019-03-02T22:01:07.089Z,9.58
2019-03-02T22:02:07.009Z,9.59
2019-03-02T22:03:06.980Z,9.55
2019-03-02T22:04:06.968Z,9.63
2019-03-02T22:05:07.072Z,9.62
2019-03-02T22:06:07.062Z,9.58
2019-03-02T22:07:07.178Z,9.73
2019-03-02T22:08:07.107Z,9.67
2019-03-02T22:09:07.004Z,9.73
2019-03-02T22:10:07.048Z,9.64
2019-03-02T22:11:07.023Z,9.72
2019-03-02T22:12:07.027Z,9.76
2019-03-02T22:13:07.099Z,9.77
2019-03-02T22:14:07.059Z,9.76
2019-03-02T22:15:07.069Z,9.73
2019-03-02T22:16:07.103Z,9.81
2019-03-02T22:17:07.040Z,9.77
2019-03-02T22:18:07.161Z,9.81
2019-03-02T22:19:07.039Z,9.91
2019-03-02T22:20:07.063Z,9.85
2019-03-02T22:21:07.070Z,9.91
2019-03-02T22:22:07.084Z,9.85
2019-03-02T22:23:07.107Z,9.90
2019-03-02T22:24:07.104Z,9.94
2019-03-02T22:25:07.073Z,9.97
2019-03-02T22:26:07.134Z,9.97
2019-03-02T22:27:07.088Z,10.00
2019-03-02T22:28:07.097Z,9.97
2019-03-02T22:29:07.170Z,9.94
2019-03-02T22:30:07.202Z,9.94
2019-03-02T22:31:07.113Z,9.99
2019-03-02T22:32:07.134Z,9.92
2019-03-02T22:33:07.121Z,9.97
2019-03-02T22:34:07.170Z,9.97
2019-03-02T22:35:07.121Z,9.92
2019-03-02T22:36:07.153Z,9.97
2019-03-02T22:37:07.159Z,10.06
2019-03-02T22:38:09.464Z,10.06
2019-03-02T22:39:07.546Z,10.00
2019-03-02T22:40:07.414Z,10.06
2019-03-02T22:41:07.209Z,10.03
2019-03-02T22:42:07.152Z,10.05
2019-03-02T22:43:07.170Z,10.07
2019-03-02T22:44:07.157Z,10.06
2019-03-02T22:45:07.171Z,10.07
2019-03-02T22:46:07.203Z,10.15
2019-03-02T22:47:07.160Z,10.12
2019-03-02T22:48:07.189Z,10.05
2019-03-02T22:49:07.184Z,9.99
2019-03-02T22:50:07.219Z,10.05
2019-03-02T22:51:07.204Z,9.95
2019-03-02T22:52:07.193Z,10.06
2019-03-02T22:53:07.191Z,10.03
2019-03-02T22:54:07.203Z,10.07
2019-03-02T22:55:07.223Z,10.09
2019-03-02T22:56:07.263Z,10.09
2019-03-02T22:57:07.210Z,10.15
2019-03-02T22:58:07.223Z,10.06
2019-03-02T22:59:07.233Z,10.07
2019-03-02T23:00:07.241Z,10.06
2019-03-02T23:01:07.262Z,10.03
2019-03-02T23:02:07.303Z,10.05
2019-03-02T23:03:07.249Z,10.10
2019-03-02T23:04:07.286Z,10.06
2019-03-02T23:05:07.251Z,9.92
2019-03-02T23:06:07.251Z,10.10
2019-03-02T23:07:07.256Z,9.97
2019-03-02T23:08:07.291Z,9.94
2019-03-02T23:09:07.297Z,10.02
2019-03-02T23:10:07.289Z,9.90
2019-03-02T23:11:07.291Z,9.94
2019-03-02T23:12:07.329Z,9.97
2019-03-02T23:13:07.309Z,9.99
2019-03-02T23:14:07.286Z,9.87
2019-03-02T23:15:07.287Z,9.82
2019-03-02T23:16:07.339Z,9.80
2019-03-02T23:17:07.319Z,9.73
2019-03-02T23:18:07.365Z,9.73
2019-03-02T23:19:07.527Z,9.67
2019-03-02T23:20:07.332Z,9.74
2019-03-02T23:21:07.415Z,9.69
2019-03-02T23:22:07.342Z,9.66
2019-03-02T23:23:07.335Z,9.63
2019-03-02T23:24:07.346Z,9.76
2019-03-02T23:25:07.367Z,9.67
2019-03-02T23:26:07.373Z,9.66
2019-03-02T23:27:07.368Z,9.80
2019-03-02T23:28:07.349Z,9.72
2019-03-02T23:29:07.433Z,9.67
2019-03-02T23:30:07.360Z,9.69
2019-03-02T23:31:07.380Z,9.72
2019-03-02T23:32:07.366Z,9.67
2019-03-02T23:33:07.386Z,9.72
2019-03-02T23:34:07.393Z,9.62
2019-03-02T23:35:07.404Z,9.76
2019-03-02T23:36:07.403Z,9.56
2019-03-02T23:37:07.419Z,9.67
2019-03-02T23:38:07.392Z,9.63
2019-03-02T23:39:07.436Z,9.73
2019-03-02T23:40:07.404Z,9.73
2019-03-02T23:41:07.441Z,9.73
2019-03-02T23:42:07.440Z,9.63
2019-03-02T23:43:07.423Z,9.59
2019-03-02T23:44:07.435Z,9.59
2019-03-02T23:45:07.447Z,9.58
2019-03-02T23:46:07.426Z,9.64
2019-03-02T23:47:07.455Z,9.72
2019-03-02T23:48:07.464Z,9.64
2019-03-02T23:49:07.440Z,9.66
2019-03-02T23:50:07.552Z,9.69
